MCP Nicosia — C4WM2 — position and weather

sailwx.info

Track history (hours):
 
Tides and Currents Weather Stations Pressure Air Temp Water Temp Dewpoint Dewpoint Depression Visibility Wind Speed Wind Dir Waves Ship Positions

MCP Nicosia

Last reported at 2018-May-21 00:59 UTC. Time now 2018-May-21 01:05 UTC.
Position N 35°55' W 005°21'.

Length 117 m; draft 5.2 m.

Type: Cargo ship. MMSI: 212741000.

Date/timePositionNaut miles runAvg speedWind from/ knotsBaromVisibWave heightAir tempDewpointWater temp
2018-May-21 00:59N 35°55' W 005°21'0 0.1
2018-May-21 00:29N 35°55' W 005°21'0 0.0
2018-May-20 23:59N 35°55' W 005°21'0 0.0
2018-May-20 23:29N 35°55' W 005°21'0 0.0
2018-May-20 22:59N 35°55' W 005°21'0 0.0
2018-May-20 22:29N 35°55' W 005°21'0 0.0
2018-May-20 21:59N 35°55' W 005°21'0 0.1
2018-May-20 21:29N 35°55' W 005°20'0 0.1
2018-May-20 20:59N 35°55' W 005°20'0 0.1
2018-May-20 20:29N 35°55' W 005°20'0 0.0
2018-May-20 19:59N 35°55' W 005°20'0 0.1
2018-May-20 19:29N 35°55' W 005°20'0 0.0
2018-May-20 18:59N 35°55' W 005°20'0 0.0
2018-May-20 18:29N 35°55' W 005°20'0 0.0
2018-May-20 17:59N 35°55' W 005°20'0 0.0
2018-May-20 17:29N 35°55' W 005°20'0 0.1
2018-May-20 16:59N 35°55' W 005°21'0 0.1
2018-May-20 16:29N 35°55' W 005°20'0 0.2
2018-May-20 15:59N 35°55' W 005°21'0 0.0
2018-May-20 15:29N 35°55' W 005°21'0 0.0
2018-May-20 14:59N 35°55' W 005°21'0 0.1
2018-May-20 14:29N 35°55' W 005°21'0 0.1
2018-May-20 13:59N 35°55' W 005°21'0 0.0
2018-May-20 13:29N 35°55' W 005°21'0 0.0
2018-May-20 12:59N 35°55' W 005°21'0 0.0
2018-May-20 12:29N 35°55' W 005°21'0 0.0
2018-May-20 11:59N 35°55' W 005°21'0 0.0
2018-May-20 11:29N 35°55' W 005°21'0 0.0
2018-May-20 10:59N 35°55' W 005°21'0 0.0
2018-May-20 10:29N 35°55' W 005°21'0 0.0
2018-May-20 09:59N 35°55' W 005°21'0 0.0
2018-May-20 09:29N 35°55' W 005°21'1 1.2
2018-May-20 09:00N 35°56' W 005°20'3 6.3
2018-May-20 08:30N 35°57' W 005°24'510.2
2018-May-20 08:00N 35°56' W 005°30'5 9.6
2018-May-20 07:30N 35°55' W 005°36'5 9.1
2018-May-20 06:59N 35°54' W 005°42'510.1
2018-May-20 06:30N 35°54' W 005°47'5 9.5
2018-May-20 06:00N 35°53' W 005°53'  
2018-May-14 07:42N 27°31' W 013°47'18 1.2
2018-May-13 16:50N 27°45' W 013°33'3 6.5
2018-May-13 16:22N 27°47' W 013°30'10 0.8
2018-May-13 03:14N 27°38' W 013°37'410.3
2018-May-13 02:50N 27°41' W 013°35'510.3
2018-May-13 02:23N 27°45' W 013°31'810.5
2018-May-13 01:39N 27°51' W 013°26'210.8
2018-May-13 01:28N 27°53' W 013°24'610.6
2018-May-13 00:56N 27°57' W 013°20'  
Track history (hours):
 
Tides and Currents Weather Stations Pressure Air Temp Water Temp Dewpoint Dewpoint Depression Visibility Wind Speed Wind Dir Waves Ship Positions

MCP Nicosia

Last reported at 2018-May-21 00:59 UTC. Time now 2018-May-21 01:05 UTC.
Position N 35°55' W 005°21'.

Length 117 m; draft 5.2 m.

Type: Cargo ship. MMSI: 212741000.

Date/timePositionNaut miles runAvg speedWind from/ knotsBaromVisibWave heightAir tempDewpointWater temp
2018-May-21 00:59N 35°55' W 005°21'0 0.1
2018-May-21 00:29N 35°55' W 005°21'0 0.0
2018-May-20 23:59N 35°55' W 005°21'0 0.0
2018-May-20 23:29N 35°55' W 005°21'0 0.0
2018-May-20 22:59N 35°55' W 005°21'0 0.0
2018-May-20 22:29N 35°55' W 005°21'0 0.0
2018-May-20 21:59N 35°55' W 005°21'0 0.1
2018-May-20 21:29N 35°55' W 005°20'0 0.1
2018-May-20 20:59N 35°55' W 005°20'0 0.1
2018-May-20 20:29N 35°55' W 005°20'0 0.0
2018-May-20 19:59N 35°55' W 005°20'0 0.1
2018-May-20 19:29N 35°55' W 005°20'0 0.0
2018-May-20 18:59N 35°55' W 005°20'0 0.0
2018-May-20 18:29N 35°55' W 005°20'0 0.0
2018-May-20 17:59N 35°55' W 005°20'0 0.0
2018-May-20 17:29N 35°55' W 005°20'0 0.1
2018-May-20 16:59N 35°55' W 005°21'0 0.1
2018-May-20 16:29N 35°55' W 005°20'0 0.2
2018-May-20 15:59N 35°55' W 005°21'0 0.0
2018-May-20 15:29N 35°55' W 005°21'0 0.0
2018-May-20 14:59N 35°55' W 005°21'0 0.1
2018-May-20 14:29N 35°55' W 005°21'0 0.1
2018-May-20 13:59N 35°55' W 005°21'0 0.0
2018-May-20 13:29N 35°55' W 005°21'0 0.0
2018-May-20 12:59N 35°55' W 005°21'0 0.0
2018-May-20 12:29N 35°55' W 005°21'0 0.0
2018-May-20 11:59N 35°55' W 005°21'0 0.0
2018-May-20 11:29N 35°55' W 005°21'0 0.0
2018-May-20 10:59N 35°55' W 005°21'0 0.0
2018-May-20 10:29N 35°55' W 005°21'0 0.0
2018-May-20 09:59N 35°55' W 005°21'0 0.0
2018-May-20 09:29N 35°55' W 005°21'1 1.2
2018-May-20 09:00N 35°56' W 005°20'3 6.3
2018-May-20 08:30N 35°57' W 005°24'510.2
2018-May-20 08:00N 35°56' W 005°30'5 9.6
2018-May-20 07:30N 35°55' W 005°36'5 9.1
2018-May-20 06:59N 35°54' W 005°42'510.1
2018-May-20 06:30N 35°54' W 005°47'5 9.5
2018-May-20 06:00N 35°53' W 005°53'  
2018-May-14 07:42N 27°31' W 013°47'18 1.2
2018-May-13 16:50N 27°45' W 013°33'3 6.5
2018-May-13 16:22N 27°47' W 013°30'10 0.8
2018-May-13 03:14N 27°38' W 013°37'410.3
2018-May-13 02:50N 27°41' W 013°35'510.3
2018-May-13 02:23N 27°45' W 013°31'810.5
2018-May-13 01:39N 27°51' W 013°26'210.8
2018-May-13 01:28N 27°53' W 013°24'610.6
2018-May-13 00:56N 27°57' W 013°20'  

Dump ship's entire track history